createdAt,value
2024-05-09T00:04:31.210Z,101473.73
2024-05-09T00:09:34.367Z,101474.42
2024-05-09T00:14:37.460Z,101476.21
2024-05-09T00:19:40.781Z,101471.83
2024-05-09T00:24:44.686Z,101467.44
2024-05-09T00:29:48.021Z,101464.13
2024-05-09T00:34:51.241Z,101462.06
2024-05-09T00:39:54.442Z,101458.17
2024-05-09T00:44:57.555Z,101465.05
2024-05-09T00:50:01.685Z,101469.59
2024-05-09T00:55:06.533Z,101469.43
2024-05-09T01:00:18.551Z,101470.61
2024-05-09T01:05:30.313Z,101472.61
2024-05-09T01:10:35.337Z,101472.44
2024-05-09T01:15:39.334Z,101467.05
2024-05-09T01:20:44.666Z,101468.48
2024-05-09T01:25:48.447Z,101469.25
2024-05-09T01:30:51.503Z,101475.80
2024-05-09T01:35:54.405Z,101475.80
2024-05-09T01:40:58.066Z,101473.52
2024-05-09T01:46:01.020Z,101473.85
2024-05-09T01:51:04.567Z,101470.34
2024-05-09T01:56:08.226Z,101471.45
2024-05-09T02:01:11.363Z,101469.65
2024-05-09T02:06:14.520Z,101468.35
2024-05-09T02:11:17.773Z,101473.36
2024-05-09T02:16:20.888Z,101479.61
2024-05-09T02:21:24.411Z,101477.30
2024-05-09T02:26:27.432Z,101474.45
2024-05-09T02:31:30.713Z,101475.16
2024-05-09T02:36:34.028Z,101473.30
2024-05-09T02:41:36.763Z,101475.29
2024-05-09T02:46:40.138Z,101481.24
2024-05-09T02:51:43.040Z,101485.65
2024-05-09T02:56:46.345Z,101485.29
2024-05-09T03:01:49.649Z,101485.45
2024-05-09T03:06:53.789Z,101488.39
2024-05-09T03:11:57.051Z,101487.71
2024-05-09T03:17:00.748Z,101490.21
2024-05-09T03:22:04.245Z,101494.98
2024-05-09T03:27:07.263Z,101498.73
2024-05-09T03:32:10.743Z,101497.02
2024-05-09T03:37:14.587Z,101499.20
2024-05-09T03:42:17.782Z,101490.23
2024-05-09T03:47:20.796Z,101484.79
2024-05-09T03:52:23.889Z,101484.25
2024-05-09T03:57:26.890Z,101490.55
2024-05-09T04:02:30.884Z,101487.53
2024-05-09T04:07:34.429Z,101485.76
2024-05-09T04:12:38.395Z,101496.33
2024-05-09T04:17:41.899Z,101498.12
2024-05-09T04:22:45.067Z,101500.36
2024-05-09T04:27:48.292Z,101500.53
2024-05-09T04:32:52.255Z,101498.63
2024-05-09T04:37:55.377Z,101500.28
2024-05-09T04:42:58.631Z,101501.15
2024-05-09T04:48:02.280Z,101506.67
2024-05-09T04:53:09.248Z,101508.33
2024-05-09T04:58:13.703Z,101507.33
2024-05-09T05:03:17.517Z,101507.11
2024-05-09T05:08:22.270Z,101504.98
2024-05-09T05:13:25.865Z,101507.17
2024-05-09T05:18:28.928Z,101504.08
2024-05-09T05:23:32.095Z,101499.77
2024-05-09T05:28:35.195Z,101497.52
2024-05-09T05:33:38.495Z,101492.11
2024-05-09T05:38:41.467Z,101495.76
2024-05-09T05:43:44.870Z,101488.10
2024-05-09T05:48:48.057Z,101487.01
2024-05-09T05:53:51.209Z,101483.77
2024-05-09T05:58:54.513Z,101487.36
2024-05-09T06:03:57.865Z,101488.55
2024-05-09T06:09:01.361Z,101492.06
2024-05-09T06:14:05.481Z,101490.89
2024-05-09T06:19:08.535Z,101489.72
2024-05-09T06:24:11.725Z,101492.13
2024-05-09T06:29:14.925Z,101490.80
2024-05-09T06:34:21.219Z,101484.29
2024-05-09T06:39:24.708Z,101479.95
2024-05-09T06:44:27.973Z,101478.88
2024-05-09T06:49:31.889Z,101474.61
2024-05-09T06:54:34.762Z,101467.64
2024-05-09T06:59:37.663Z,101463.61
2024-05-09T07:04:40.692Z,101460.02
2024-05-09T07:09:43.855Z,101455.52
2024-05-09T07:14:46.816Z,101458.41
2024-05-09T07:19:51.163Z,101459.70
2024-05-09T07:24:54.445Z,101450.13
2024-05-09T07:29:57.929Z,101445.27
2024-05-09T07:35:00.951Z,101438.76
2024-05-09T07:40:07.443Z,101438.42
2024-05-09T07:45:29.642Z,101438.91
2024-05-09T07:52:23.796Z,101432.97
2024-05-09T07:55:58.105Z,101437.20
2024-05-09T08:01:04.885Z,101439.30
2024-05-09T08:06:08.105Z,101432.91
2024-05-09T08:11:11.458Z,101428.80
2024-05-09T08:16:15.126Z,101426.85
2024-05-09T08:21:19.401Z,101426.12
2024-05-09T08:26:22.595Z,101427.85
2024-05-09T08:31:25.832Z,101429.98
2024-05-09T08:36:29.167Z,101424.44
2024-05-09T08:41:33.360Z,101417.25
2024-05-09T08:46:37.670Z,101414.39
2024-05-09T08:51:40.724Z,101406.57
2024-05-09T08:56:46.940Z,101405.92
2024-05-09T09:01:50.978Z,101398.55
2024-05-09T09:06:58.208Z,101397.77
2024-05-09T09:12:01.649Z,101391.88
2024-05-09T09:17:17.431Z,101386.77
2024-05-09T09:22:21.660Z,101390.61
2024-05-09T09:27:24.964Z,101390.08
2024-05-09T09:32:29.630Z,101387.83
2024-05-09T09:37:32.971Z,101378.77
2024-05-09T09:42:37.951Z,101381.81
2024-05-09T09:47:42.693Z,101370.21
2024-05-09T09:52:46.789Z,101361.48
2024-05-09T09:57:49.837Z,101359.11
2024-05-09T10:02:53.001Z,101354.86
2024-05-09T10:07:57.704Z,101353.13
2024-05-09T10:13:08.360Z,101348.82
2024-05-09T10:18:11.843Z,101344.11
2024-05-09T10:23:32.956Z,101333.90
2024-05-09T10:28:39.248Z,101334.73
2024-05-09T10:33:48.573Z,101329.75
2024-05-09T10:38:53.700Z,101321.55
2024-05-09T10:43:56.666Z,101319.64
2024-05-09T10:49:01.683Z,101320.88
2024-05-09T10:54:06.175Z,101320.20
2024-05-09T10:59:09.155Z,101317.38
2024-05-09T11:04:13.548Z,101312.30
2024-05-09T11:09:16.998Z,101306.72
2024-05-09T11:14:20.103Z,101299.91
2024-05-09T11:19:23.452Z,101288.39
2024-05-09T11:24:26.728Z,101281.30
2024-05-09T11:29:40.274Z,101278.97
2024-05-09T11:34:43.361Z,101277.61
2024-05-09T11:39:46.837Z,101272.79
2024-05-09T11:44:49.701Z,101266.84
2024-05-09T11:49:56.163Z,101259.77
2024-05-09T11:54:59.260Z,101251.86
2024-05-09T12:00:05.604Z,101244.74
2024-05-09T12:05:11.334Z,101242.70
2024-05-09T12:10:19.625Z,101239.58
2024-05-09T12:15:25.842Z,101229.91
2024-05-09T12:20:36.113Z,101229.64
2024-05-09T12:25:42.701Z,101225.47
2024-05-09T12:30:45.880Z,101225.11
2024-05-09T12:35:50.884Z,101224.07
2024-05-09T12:40:54.510Z,101217.98
2024-05-09T12:45:57.939Z,101210.70
2024-05-09T12:51:00.989Z,101203.91
2024-05-09T12:56:05.993Z,101201.80
2024-05-09T13:01:09.623Z,101199.73
2024-05-09T13:06:12.876Z,101196.85
2024-05-09T13:11:16.116Z,101188.10
2024-05-09T13:16:19.628Z,101184.56
2024-05-09T13:21:23.217Z,101186.26
2024-05-09T13:26:26.231Z,101178.45
2024-05-09T13:31:29.250Z,101168.69
2024-05-09T13:36:32.467Z,101163.31
2024-05-09T13:41:35.652Z,101160.27
2024-05-09T13:46:38.741Z,101160.61
2024-05-09T13:51:41.768Z,101157.27
2024-05-09T13:56:45.276Z,101153.05
2024-05-09T14:01:48.580Z,101143.63
2024-05-09T14:06:52.413Z,101137.57
2024-05-09T14:11:55.377Z,101133.73
2024-05-09T14:16:58.646Z,101127.38
2024-05-09T14:22:02.494Z,101124.91
2024-05-09T14:27:06.149Z,101117.96
2024-05-09T14:32:09.056Z,101115.07
2024-05-09T14:37:12.223Z,101107.65
2024-05-09T14:42:15.508Z,101101.73
2024-05-09T14:47:18.503Z,101088.00
2024-05-09T14:52:22.252Z,101088.61
2024-05-09T14:57:25.872Z,101085.89
2024-05-09T15:02:29.103Z,101078.42
2024-05-09T15:07:33.043Z,101070.02
2024-05-09T15:12:35.989Z,101063.79
2024-05-09T15:17:39.601Z,101055.52
2024-05-09T15:22:42.694Z,101053.84
2024-05-09T15:27:47.493Z,101046.94
2024-05-09T15:32:51.204Z,101047.65
2024-05-09T15:37:54.846Z,101044.48
2024-05-09T15:42:58.411Z,101041.69
2024-05-09T15:48:03.016Z,101040.80
2024-05-09T15:53:06.970Z,101037.68
2024-05-09T15:58:10.945Z,101037.27
2024-05-09T16:03:15.058Z,101030.25
2024-05-09T16:08:19.830Z,101024.14
2024-05-09T16:13:22.942Z,101025.61
2024-05-09T16:18:26.293Z,101016.61
2024-05-09T16:23:29.389Z,101014.39
2024-05-09T16:28:32.996Z,101009.17
2024-05-09T16:33:36.345Z,101002.85
2024-05-09T16:38:40.940Z,100997.48
2024-05-09T16:43:43.879Z,100994.20
2024-05-09T16:48:47.434Z,100993.91
2024-05-09T16:53:50.311Z,100992.46
2024-05-09T16:58:53.351Z,100988.96
2024-05-09T17:03:56.897Z,100984.02
2024-05-09T17:09:08.301Z,100982.01
2024-05-09T17:14:15.056Z,100981.10
2024-05-09T17:19:18.350Z,100979.09
2024-05-09T17:24:21.389Z,100974.41
2024-05-09T17:29:24.791Z,100970.20
2024-05-09T17:34:28.115Z,100966.08
2024-05-09T17:39:31.672Z,100957.81
2024-05-09T17:44:34.614Z,100959.20
2024-05-09T17:49:37.654Z,100958.57
2024-05-09T17:54:40.764Z,100958.83
2024-05-09T17:59:44.248Z,100951.72
2024-05-09T18:04:47.255Z,100953.48
2024-05-09T18:09:50.819Z,100956.06
2024-05-09T18:14:53.861Z,100957.02
2024-05-09T18:19:56.881Z,100959.34
2024-05-09T18:25:00.018Z,100963.16
2024-05-09T18:30:07.082Z,100963.86
2024-05-09T18:35:11.621Z,100965.23
2024-05-09T18:40:20.994Z,100962.32
2024-05-09T18:45:31.118Z,100965.61
2024-05-09T18:50:38.593Z,100967.94
2024-05-09T18:55:44.190Z,100964.58
2024-05-09T19:00:50.224Z,100967.44
2024-05-09T19:05:55.042Z,100968.27
2024-05-09T19:10:59.175Z,100966.30
2024-05-09T19:16:03.562Z,100964.40
2024-05-09T19:21:06.694Z,100967.89
2024-05-09T19:26:10.003Z,100968.50
2024-05-09T19:31:13.119Z,100969.86
2024-05-09T19:36:20.591Z,100964.59
2024-05-09T19:41:24.647Z,100963.85
2024-05-09T19:46:28.303Z,100963.48
2024-05-09T19:51:33.484Z,100964.39
2024-05-09T19:56:36.919Z,100961.77
2024-05-09T20:01:40.714Z,100965.29
2024-05-09T20:06:46.489Z,100961.16
2024-05-09T20:11:49.787Z,100959.54
2024-05-09T20:16:53.003Z,100958.67
2024-05-09T20:21:56.518Z,100961.54
2024-05-09T20:26:59.557Z,100966.77
2024-05-09T20:32:02.882Z,100968.74
2024-05-09T20:37:06.081Z,100965.78
2024-05-09T20:42:09.455Z,100963.68
2024-05-09T20:47:12.907Z,100963.02
2024-05-09T20:52:16.256Z,100961.96
2024-05-09T20:57:19.538Z,100967.92
2024-05-09T21:02:23.244Z,100965.63
2024-05-09T21:07:26.275Z,100969.88
2024-05-09T21:12:29.661Z,100969.50
2024-05-09T21:17:33.870Z,100967.11
2024-05-09T21:22:38.337Z,100968.37
2024-05-09T21:27:42.029Z,100967.11
2024-05-09T21:32:46.008Z,100963.28
2024-05-09T21:37:49.140Z,100964.48
2024-05-09T21:42:52.218Z,100964.66
2024-05-09T21:47:55.534Z,100959.99
2024-05-09T21:52:59.156Z,100966.09
2024-05-09T21:58:02.419Z,100968.02
2024-05-09T22:03:08.362Z,100969.29
2024-05-09T22:08:12.274Z,100969.15
2024-05-09T22:13:16.936Z,100967.08
2024-05-09T22:18:20.335Z,100960.52
2024-05-09T22:23:23.286Z,100955.05
2024-05-09T22:28:26.424Z,100951.48
2024-05-09T22:33:29.728Z,100947.66
2024-05-09T22:38:33.009Z,100943.80
2024-05-09T22:43:36.010Z,100942.58
2024-05-09T22:48:39.337Z,100937.95
2024-05-09T22:53:42.534Z,100933.77
2024-05-09T22:58:45.458Z,100931.44
2024-05-09T23:03:49.529Z,100932.22
2024-05-09T23:08:53.083Z,100930.46
2024-05-09T23:13:56.042Z,100930.11
2024-05-09T23:18:59.162Z,100934.63
2024-05-09T23:24:01.979Z,100927.41
2024-05-09T23:29:05.000Z,100922.97
2024-05-09T23:34:08.232Z,100913.73
2024-05-09T23:39:11.402Z,100913.52
2024-05-09T23:44:14.206Z,100912.50
2024-05-09T23:49:17.357Z,100909.27
2024-05-09T23:54:20.408Z,100906.61
2024-05-09T23:59:23.414Z,100897.94
